Time;durP1;ratioP1;P1;durP2;ratioP2;P2;SDS_P1;SDS_P2;PMS_P1;PMS_P2;Temp;Humidity;BMP_temperature;BMP_pressure;BME280_temperature;BME280_humidity;BME280_pressure;Samples;Min_cycle;Max_cycle;Signal;HPM_P1;HPM_P2
2022/12/13 00:00:51;;;;;;;4.90;2.07;;;;;;;;;;10519260;28;20040;-78
2022/12/13 00:06:05;;;;;;;4.83;1.77;;;;;;;;;;10504583;28;20036;-76
2022/12/13 00:11:15;;;;;;;12.40;3.90;;;;;;;;;;10517012;28;20044;-77
2022/12/13 00:16:22;;;;;;;9.10;2.83;;;;;;;;;;10511033;28;20042;-75
2022/12/13 00:21:26;;;;;;;2.70;1.13;;;;;;;;;;10513690;28;20115;-76
2022/12/13 00:26:29;;;;;;;;;;;;;;;;;;10522253;28;20456;-78
2022/12/13 00:31:35;;;;;;;5.00;2.43;;;;;;;;;;10503683;28;19920;-77
2022/12/13 00:36:59;;;;;;;2.77;1.87;;;;;;;;;;10517073;28;20047;-74
2022/12/13 00:42:03;;;;;;;1.85;1.23;;;;;;;;;;10494607;28;20045;-76
2022/12/13 00:47:07;;;;;;;5.40;2.10;;;;;;;;;;10501011;28;20276;-75
2022/12/13 00:52:10;;;;;;;8.53;3.27;;;;;;;;;;10518887;28;20040;-76
2022/12/13 00:57:13;;;;;;;12.97;4.47;;;;;;;;;;10522681;28;20504;-75
2022/12/13 01:02:20;;;;;;;7.00;4.28;;;;;;;;;;10514569;28;20519;-74
2022/12/13 01:07:24;;;;;;;7.27;1.83;;;;;;;;;;10498396;28;20582;-75
2022/12/13 01:12:36;;;;;;;19.50;7.10;;;;;;;;;;10515386;28;20031;-76
2022/12/13 01:17:43;;;;;;;4.73;2.90;;;;;;;;;;10495678;28;20040;-77
2022/12/13 01:22:46;;;;;;;3.03;2.20;;;;;;;;;;10506566;28;20050;-75
2022/12/13 01:27:54;;;;;;;15.03;6.57;;;;;;;;;;10507717;28;20029;-76
2022/12/13 01:32:59;;;;;;;5.80;1.85;;;;;;;;;;10521628;28;20059;-77
2022/12/13 01:38:02;;;;;;;11.03;5.17;;;;;;;;;;10505777;28;20248;-77
2022/12/13 01:43:18;;;;;;;1.07;0.90;;;;;;;;;;10510002;28;20094;-77
2022/12/13 01:48:26;;;;;;;3.90;2.08;;;;;;;;;;10515627;28;20044;-76
2022/12/13 01:53:33;;;;;;;6.70;2.37;;;;;;;;;;10496941;28;20144;-76
2022/12/13 01:58:37;;;;;;;9.93;3.33;;;;;;;;;;10507618;28;20109;-75
2022/12/13 02:03:43;;;;;;;3.50;1.80;;;;;;;;;;10507605;28;20044;-75
2022/12/13 02:08:47;;;;;;;7.53;1.50;;;;;;;;;;10519250;28;20036;-76
2022/12/13 02:13:56;;;;;;;15.47;6.13;;;;;;;;;;10518876;28;20028;-75
2022/12/13 02:19:15;;;;;;;4.93;1.55;;;;;;;;;;10524708;28;20067;-75
2022/12/13 02:24:35;;;;;;;6.00;2.90;;;;;;;;;;10522932;28;20048;-76
2022/12/13 02:29:59;;;;;;;3.30;1.03;;;;;;;;;;10509674;28;20446;-75
2022/12/13 02:35:08;;;;;;;5.93;2.88;;;;;;;;;;10478406;28;20442;-76
2022/12/13 02:40:17;;;;;;;3.77;1.97;;;;;;;;;;10516917;28;20047;-75
2022/12/13 02:45:24;;;;;;;5.30;2.00;;;;;;;;;;10535774;28;20421;-75
2022/12/13 02:50:31;;;;;;;2.63;1.30;;;;;;;;;;10509745;28;20498;-77
2022/12/13 02:55:40;;;;;;;2.03;1.93;;;;;;;;;;10523115;28;20051;-74
2022/12/13 03:00:50;;;;;;;1.98;1.50;;;;;;;;;;10528410;28;20134;-75
2022/12/13 03:11:21;;;;;;;5.93;2.63;;;;;;;;;;10516005;28;20132;-77
2022/12/13 03:16:26;;;;;;;7.72;2.67;;;;;;;;;;10496305;28;20060;-77
2022/12/13 03:21:38;;;;;;;7.57;3.47;;;;;;;;;;10492545;28;20046;-76
2022/12/13 03:26:50;;;;;;;4.37;2.30;;;;;;;;;;10529443;28;20040;-77
2022/12/13 03:31:55;;;;;;;8.73;4.03;;;;;;;;;;10520815;28;20044;-77
2022/12/13 03:37:00;;;;;;;0.80;0.30;;;;;;;;;;10530379;28;20032;-77
2022/12/13 03:42:04;;;;;;;2.17;1.37;;;;;;;;;;10525702;28;20040;-75
2022/12/13 03:47:07;;;;;;;1.17;0.73;;;;;;;;;;10525396;28;20520;-75
2022/12/13 03:52:13;;;;;;;1.95;1.20;;;;;;;;;;10505039;28;20343;-76
2022/12/13 03:57:21;;;;;;;9.50;2.90;;;;;;;;;;10516067;28;20028;-76
2022/12/13 04:02:26;;;;;;;2.20;2.00;;;;;;;;;;10535059;28;20055;-76
2022/12/13 04:07:35;;;;;;;2.23;1.27;;;;;;;;;;10522351;28;20044;-76
2022/12/13 04:18:07;;;;;;;0.87;0.57;;;;;;;;;;10534087;28;20032;-75
2022/12/13 04:23:13;;;;;;;1.20;0.53;;;;;;;;;;10520873;28;20036;-75
2022/12/13 04:28:15;;;;;;;3.13;1.43;;;;;;;;;;10515971;28;20040;-75
2022/12/13 04:33:24;;;;;;;1.67;1.03;;;;;;;;;;10503597;28;20040;-77
2022/12/13 04:38:31;;;;;;;9.23;3.30;;;;;;;;;;10512981;28;20043;-75
2022/12/13 04:43:39;;;;;;;2.33;1.97;;;;;;;;;;10506846;28;20122;-76
2022/12/13 04:48:42;;;;;;;1.60;0.93;;;;;;;;;;10504279;28;20033;-76
2022/12/13 04:53:53;;;;;;;3.22;1.88;;;;;;;;;;10524327;28;20047;-75
2022/12/13 04:58:57;;;;;;;1.03;1.03;;;;;;;;;;10509379;28;20063;-75
2022/12/13 05:04:02;;;;;;;2.03;1.40;;;;;;;;;;10523944;28;20396;-75
2022/12/13 05:09:07;;;;;;;0.43;0.23;;;;;;;;;;10505134;28;20047;-75
2022/12/13 05:14:13;;;;;;;1.67;1.57;;;;;;;;;;10500894;28;20062;-76
2022/12/13 05:19:25;;;;;;;1.60;1.40;;;;;;;;;;10512693;28;20279;-75
2022/12/13 05:24:37;;;;;;;1.97;0.83;;;;;;;;;;10508831;28;20185;-77
2022/12/13 05:29:45;;;;;;;5.03;2.20;;;;;;;;;;10518868;28;20406;-76
2022/12/13 05:34:49;;;;;;;4.65;2.00;;;;;;;;;;10513409;28;20071;-75
2022/12/13 05:39:53;;;;;;;1.15;0.70;;;;;;;;;;10492509;28;20043;-76
2022/12/13 05:44:55;;;;;;;;;;;;;;;;;;10511676;28;20036;-75
2022/12/13 05:49:59;;;;;;;0.83;0.40;;;;;;;;;;10511055;28;20271;-76
2022/12/13 05:55:06;;;;;;;0.38;0.38;;;;;;;;;;10520907;28;20115;-76
2022/12/13 06:00:11;;;;;;;1.50;1.40;;;;;;;;;;10515267;28;20047;-76
2022/12/13 06:05:33;;;;;;;1.58;0.98;;;;;;;;;;10509108;28;20036;-76
2022/12/13 06:10:39;;;;;;;1.50;1.25;;;;;;;;;;10522088;28;20046;-76
2022/12/13 06:15:43;;;;;;;4.37;1.33;;;;;;;;;;10513555;28;20425;-76
2022/12/13 06:20:56;;;;;;;2.15;1.15;;;;;;;;;;10491722;28;20713;-78
2022/12/13 06:26:02;;;;;;;2.20;1.00;;;;;;;;;;10513404;28;20042;-75
2022/12/13 06:31:05;;;;;;;0.47;0.40;;;;;;;;;;10511079;28;20036;-76
2022/12/13 06:36:10;;;;;;;0.47;0.47;;;;;;;;;;10506889;28;20085;-77
2022/12/13 06:41:17;;;;;;;11.07;1.13;;;;;;;;;;10530118;28;20032;-75
2022/12/13 06:46:26;;;;;;;0.90;0.80;;;;;;;;;;10519428;28;20039;-75
2022/12/13 06:51:28;;;;;;;6.43;1.13;;;;;;;;;;10492439;28;20044;-76
2022/12/13 06:56:37;;;;;;;2.13;1.47;;;;;;;;;;10509465;28;20356;-78
2022/12/13 07:01:41;;;;;;;7.00;2.17;;;;;;;;;;10516325;28;20521;-77
2022/12/13 07:06:52;;;;;;;3.97;3.50;;;;;;;;;;10519992;28;20040;-78
2022/12/13 07:11:56;;;;;;;3.30;1.73;;;;;;;;;;10508053;28;20124;-78
2022/12/13 07:17:00;;;;;;;4.03;1.97;;;;;;;;;;10510021;28;20036;-76
2022/12/13 07:22:07;;;;;;;6.60;3.43;;;;;;;;;;10512859;28;20036;-77
2022/12/13 07:27:11;;;;;;;4.17;0.67;;;;;;;;;;10500361;28;20524;-77
2022/12/13 07:32:15;;;;;;;3.10;1.27;;;;;;;;;;10523517;28;20302;-77
2022/12/13 07:37:20;;;;;;;3.45;1.77;;;;;;;;;;10532963;28;20048;-77
2022/12/13 07:42:34;;;;;;;3.97;2.05;;;;;;;;;;10507238;28;20048;-79
2022/12/13 07:47:37;;;;;;;18.70;5.73;;;;;;;;;;10521304;28;20036;-77
2022/12/13 07:52:41;;;;;;;12.33;5.10;;;;;;;;;;10502782;28;20040;-76
2022/12/13 07:57:45;;;;;;;10.80;4.05;;;;;;;;;;10513941;28;20052;-77
2022/12/13 08:02:48;;;;;;;10.20;3.58;;;;;;;;;;10520546;28;20128;-77
2022/12/13 08:07:51;;;;;;;11.47;4.37;;;;;;;;;;10494509;28;20147;-76
2022/12/13 08:12:57;;;;;;;9.03;3.80;;;;;;;;;;10521763;28;20070;-76
2022/12/13 08:18:02;;;;;;;5.77;2.57;;;;;;;;;;10530653;28;20566;-76
2022/12/13 08:23:09;;;;;;;2.47;1.53;;;;;;;;;;10517437;28;20028;-79
2022/12/13 08:28:14;;;;;;;16.23;5.60;;;;;;;;;;10522480;28;20098;-77
2022/12/13 08:33:19;;;;;;;6.20;2.77;;;;;;;;;;10514843;28;20582;-77
2022/12/13 08:38:22;;;;;;;11.77;4.43;;;;;;;;;;10517425;28;20080;-77
2022/12/13 08:43:28;;;;;;;9.55;3.67;;;;;;;;;;10500224;28;20113;-77
2022/12/13 08:48:31;;;;;;;16.03;4.73;;;;;;;;;;10516020;28;20048;-77
2022/12/13 08:53:40;;;;;;;17.60;6.30;;;;;;;;;;10527641;28;20562;-78
2022/12/13 08:58:50;;;;;;;12.13;6.10;;;;;;;;;;10507278;28;20044;-79
2022/12/13 09:03:55;;;;;;;18.70;7.45;;;;;;;;;;10514609;28;20044;-78
2022/12/13 09:08:58;;;;;;;14.10;6.32;;;;;;;;;;10495304;28;20036;-78
2022/12/13 09:14:07;;;;;;;13.85;6.20;;;;;;;;;;10525504;28;20040;-77
2022/12/13 09:19:16;;;;;;;13.00;6.03;;;;;;;;;;10517153;28;20048;-77
2022/12/13 09:24:28;;;;;;;14.77;6.60;;;;;;;;;;10499510;28;20054;-77
2022/12/13 09:29:39;;;;;;;15.95;6.35;;;;;;;;;;10525621;28;20039;-77
2022/12/13 09:34:42;;;;;;;;;;;;;;;;;;10512428;28;20051;-78
2022/12/13 09:39:48;;;;;;;13.30;5.63;;;;;;;;;;10513396;28;19920;-77
2022/12/13 09:44:59;;;;;;;12.45;5.43;;;;;;;;;;10508955;28;20036;-78
2022/12/13 09:50:06;;;;;;;14.57;6.50;;;;;;;;;;10513180;28;20047;-77
2022/12/13 09:55:21;;;;;;;13.80;6.00;;;;;;;;;;10516638;28;20418;-78
2022/12/13 10:00:34;;;;;;;15.98;7.22;;;;;;;;;;10524016;28;20043;-78
2022/12/13 10:05:38;;;;;;;16.23;7.57;;;;;;;;;;10500374;28;20048;-77
2022/12/13 10:10:46;;;;;;;15.45;6.90;;;;;;;;;;10521783;28;20032;-77
2022/12/13 10:15:53;;;;;;;17.88;7.82;;;;;;;;;;10498284;28;20036;-79
2022/12/13 10:20:57;;;;;;;15.23;6.22;;;;;;;;;;10497061;28;20040;-80
2022/12/13 10:26:01;;;;;;;;;;;;;;;;;;10511540;28;20043;-76
2022/12/13 10:31:08;;;;;;;16.33;7.28;;;;;;;;;;10529171;28;20007;-78
2022/12/13 10:36:15;;;;;;;16.48;7.40;;;;;;;;;;10507053;28;20048;-79
2022/12/13 10:41:33;;;;;;;15.02;6.60;;;;;;;;;;10522219;28;20036;-77
2022/12/13 10:46:37;;;;;;;16.83;8.07;;;;;;;;;;10501283;28;20055;-77
2022/12/13 10:51:41;;;;;;;18.75;8.20;;;;;;;;;;10508098;28;20129;-78
2022/12/13 10:56:58;;;;;;;17.13;7.63;;;;;;;;;;10516725;28;20437;-77
2022/12/13 11:02:23;;;;;;;16.73;8.40;;;;;;;;;;10518429;28;20116;-78
2022/12/13 11:07:31;;;;;;;16.75;7.55;;;;;;;;;;10511928;28;20044;-77
2022/12/13 11:12:34;;;;;;;17.75;7.50;;;;;;;;;;10520065;28;20355;-77
2022/12/13 11:17:45;;;;;;;14.93;6.43;;;;;;;;;;10504489;28;20044;-78
2022/12/13 11:22:58;;;;;;;14.63;6.95;;;;;;;;;;10490669;28;20517;-78
2022/12/13 11:28:06;;;;;;;13.55;7.28;;;;;;;;;;10509362;28;20389;-77
2022/12/13 11:33:32;;;;;;;15.02;7.32;;;;;;;;;;10499134;28;20057;-77
2022/12/13 11:38:58;;;;;;;17.75;7.95;;;;;;;;;;10516596;28;20151;-77
2022/12/13 11:44:04;;;;;;;14.85;7.05;;;;;;;;;;10520808;28;20473;-77
2022/12/13 11:49:11;;;;;;;18.13;6.88;;;;;;;;;;10533532;28;20090;-77
2022/12/13 11:54:23;;;;;;;12.18;5.05;;;;;;;;;;10523682;28;20051;-76
2022/12/13 11:59:32;;;;;;;19.40;6.90;;;;;;;;;;10531830;28;20036;-78
2022/12/13 12:04:45;;;;;;;18.00;7.50;;;;;;;;;;10512521;28;20040;-77
2022/12/13 12:09:52;;;;;;;14.90;6.93;;;;;;;;;;10509879;28;20414;-78
2022/12/13 12:14:58;;;;;;;15.50;6.35;;;;;;;;;;10536855;28;20040;-77
2022/12/13 12:20:11;;;;;;;19.75;8.45;;;;;;;;;;10529260;28;20028;-77
2022/12/13 12:25:23;;;;;;;20.35;8.50;;;;;;;;;;10513457;28;20089;-76
2022/12/13 12:30:30;;;;;;;20.90;9.90;;;;;;;;;;10529988;28;20402;-77
2022/12/13 12:35:44;;;;;;;31.95;11.10;;;;;;;;;;10531211;28;20142;-77
2022/12/13 12:40:59;;;;;;;23.98;9.23;;;;;;;;;;10533153;28;20508;-77
2022/12/13 12:46:39;;;;;;;21.23;9.27;;;;;;;;;;10521509;28;20040;-77
2022/12/13 12:52:09;;;;;;;20.98;9.27;;;;;;;;;;10503658;28;20119;-77
2022/12/13 12:57:19;;;;;;;18.27;7.25;;;;;;;;;;10507410;28;20044;-76
2022/12/13 13:02:23;;;;;;;14.48;6.07;;;;;;;;;;10525783;28;20131;-77
2022/12/13 13:07:30;;;;;;;18.70;7.85;;;;;;;;;;10509376;28;20447;-77
2022/12/13 13:12:43;;;;;;;20.92;7.88;;;;;;;;;;10519002;28;20102;-75
2022/12/13 13:17:52;;;;;;;13.77;5.40;;;;;;;;;;10530778;28;20051;-76
2022/12/13 13:22:56;;;;;;;17.23;6.75;;;;;;;;;;10501273;28;20114;-76
2022/12/13 13:28:22;;;;;;;20.75;8.60;;;;;;;;;;10520926;28;20048;-78
2022/12/13 13:33:41;;;;;;;14.18;6.22;;;;;;;;;;10512952;28;20058;-76
2022/12/13 13:38:51;;;;;;;15.55;5.53;;;;;;;;;;10515728;28;20180;-76
2022/12/13 13:43:56;;;;;;;18.77;7.03;;;;;;;;;;10517020;28;20547;-76
2022/12/13 13:49:02;;;;;;;3.78;2.25;;;;;;;;;;10491951;28;20040;-77
2022/12/13 13:54:29;;;;;;;16.17;5.97;;;;;;;;;;10513452;28;20032;-77
2022/12/13 13:59:46;;;;;;;8.93;4.07;;;;;;;;;;10522624;28;20521;-77
2022/12/13 14:05:16;;;;;;;12.77;4.07;;;;;;;;;;10515564;28;20038;-76
2022/12/13 14:10:46;;;;;;;12.33;4.80;;;;;;;;;;10512369;28;20044;-76
2022/12/13 14:16:08;;;;;;;5.67;2.43;;;;;;;;;;10524046;28;20036;-77
2022/12/13 14:21:46;;;;;;;9.27;4.07;;;;;;;;;;10517396;28;20492;-77
2022/12/13 14:27:07;;;;;;;5.43;2.67;;;;;;;;;;10527558;28;20052;-77
2022/12/13 14:32:18;;;;;;;14.70;5.73;;;;;;;;;;10519393;28;20036;-77
2022/12/13 14:37:31;;;;;;;3.93;1.27;;;;;;;;;;10526037;28;20056;-77
2022/12/13 14:42:35;;;;;;;7.80;3.47;;;;;;;;;;10518613;28;20051;-77
2022/12/13 14:47:40;;;;;;;11.15;4.57;;;;;;;;;;10513992;28;20040;-76
2022/12/13 14:52:43;;;;;;;11.30;4.23;;;;;;;;;;10526111;28;20056;-77
2022/12/13 14:57:51;;;;;;;14.20;4.73;;;;;;;;;;10496955;28;20460;-76
2022/12/13 15:02:55;;;;;;;4.87;2.00;;;;;;;;;;10521575;28;20191;-77
2022/12/13 15:07:58;;;;;;;9.55;5.50;;;;;;;;;;10514826;28;20504;-78
2022/12/13 15:13:12;;;;;;;;;;;;;;;;;;10500535;28;20048;-79
2022/12/13 15:18:19;;;;;;;2.40;1.42;;;;;;;;;;10523497;28;20282;-77
2022/12/13 15:23:24;;;;;;;2.93;2.03;;;;;;;;;;10512890;28;20060;-77
2022/12/13 15:28:29;;;;;;;7.93;3.50;;;;;;;;;;10506650;28;20044;-77
2022/12/13 15:33:34;;;;;;;23.30;7.73;;;;;;;;;;10495744;28;20064;-78
2022/12/13 15:38:59;;;;;;;6.83;2.07;;;;;;;;;;10524173;28;20044;-76
2022/12/13 15:44:04;;;;;;;8.40;3.07;;;;;;;;;;10500466;28;20046;-77
2022/12/13 15:49:18;;;;;;;19.20;6.33;;;;;;;;;;10524631;28;20044;-77
2022/12/13 15:54:21;;;;;;;11.00;3.77;;;;;;;;;;10504321;28;20509;-77
2022/12/13 15:59:25;;;;;;;4.20;2.80;;;;;;;;;;10507030;28;20150;-77
2022/12/13 16:04:31;;;;;;;12.63;4.43;;;;;;;;;;10521064;28;20032;-77
2022/12/13 16:09:37;;;;;;;2.43;2.23;;;;;;;;;;10522105;28;20127;-77
2022/12/13 16:14:45;;;;;;;7.20;3.10;;;;;;;;;;10517292;28;20048;-77
2022/12/13 16:19:53;;;;;;;6.13;3.20;;;;;;;;;;10530565;28;20044;-77
2022/12/13 16:24:59;;;;;;;15.70;4.83;;;;;;;;;;10524886;28;20044;-77
2022/12/13 16:30:03;;;;;;;23.70;5.97;;;;;;;;;;10516992;28;20040;-77
2022/12/13 16:35:18;;;;;;;7.17;4.50;;;;;;;;;;10500274;28;20102;-77
2022/12/13 16:40:25;;;;;;;16.37;1.87;;;;;;;;;;10508700;28;20040;-75
2022/12/13 16:45:28;;;;;;;13.00;5.10;;;;;;;;;;10503187;28;20047;-77
2022/12/13 16:50:46;;;;;;;7.73;2.73;;;;;;;;;;10509510;28;20386;-78
2022/12/13 16:55:59;;;;;;;8.73;2.93;;;;;;;;;;10522708;28;20058;-77
2022/12/13 17:01:08;;;;;;;10.30;4.23;;;;;;;;;;10509342;28;20093;-76
2022/12/13 17:06:12;;;;;;;8.00;3.30;;;;;;;;;;10520299;28;20078;-77
2022/12/13 17:11:15;;;;;;;3.20;2.70;;;;;;;;;;10519686;28;20059;-76
2022/12/13 17:16:20;;;;;;;9.93;3.73;;;;;;;;;;10494443;28;20040;-76
2022/12/13 17:21:25;;;;;;;8.20;3.53;;;;;;;;;;10519284;28;20219;-76
2022/12/13 17:26:28;;;;;;;7.73;2.87;;;;;;;;;;10509492;28;20397;-76
2022/12/13 17:31:32;;;;;;;7.40;2.73;;;;;;;;;;10518469;28;20059;-76
2022/12/13 17:36:42;;;;;;;3.07;2.13;;;;;;;;;;10487034;28;20485;-77
2022/12/13 17:41:48;;;;;;;7.83;3.17;;;;;;;;;;10505104;28;20062;-77
2022/12/13 17:46:58;;;;;;;4.67;2.33;;;;;;;;;;10517444;28;20045;-76
2022/12/13 17:52:03;;;;;;;6.65;3.22;;;;;;;;;;10511336;28;20035;-78
2022/12/13 17:57:09;;;;;;;4.67;3.23;;;;;;;;;;10496714;28;20036;-77
2022/12/13 18:02:14;;;;;;;1.47;1.37;;;;;;;;;;10516544;28;20052;-77
2022/12/13 18:07:18;;;;;;;11.27;4.33;;;;;;;;;;10499199;28;20059;-76
2022/12/13 18:12:21;;;;;;;;;;;;;;;;;;10494539;28;20043;-77
2022/12/13 18:17:24;;;;;;;8.13;2.53;;;;;;;;;;10496431;28;19920;-77
2022/12/13 18:22:49;;;;;;;7.43;3.20;;;;;;;;;;10514694;28;20048;-77
2022/12/13 18:27:56;;;;;;;4.33;2.50;;;;;;;;;;10502713;28;20062;-77
2022/12/13 18:33:04;;;;;;;7.43;3.43;;;;;;;;;;10491726;28;20166;-78
2022/12/13 18:38:08;;;;;;;1.85;1.15;;;;;;;;;;10506673;28;20051;-76
2022/12/13 18:43:10;;;;;;;;;;;;;;;;;;10512603;28;20373;-75
2022/12/13 18:48:13;;;;;;;7.50;3.20;;;;;;;;;;10508119;28;20387;-76
2022/12/13 18:53:18;;;;;;;1.77;1.60;;;;;;;;;;10495077;28;20361;-75
2022/12/13 18:58:21;;;;;;;10.80;3.40;;;;;;;;;;10510734;28;20178;-78
2022/12/13 19:03:24;;;;;;;8.80;2.93;;;;;;;;;;10512084;28;20036;-77
2022/12/13 19:08:31;;;;;;;11.90;4.90;;;;;;;;;;10495527;28;20040;-76
2022/12/13 19:13:35;;;;;;;4.33;2.90;;;;;;;;;;10506154;28;20443;-76
2022/12/13 19:18:38;;;;;;;8.82;3.60;;;;;;;;;;10524097;28;20378;-77
2022/12/13 19:23:45;;;;;;;5.72;2.63;;;;;;;;;;10487570;28;20032;-79
2022/12/13 19:28:59;;;;;;;10.10;4.37;;;;;;;;;;10504514;28;20066;-78
2022/12/13 19:34:02;;;;;;;4.13;2.17;;;;;;;;;;10516282;28;20063;-77
2022/12/13 19:39:08;;;;;;;8.97;2.50;;;;;;;;;;10517094;28;20043;-77
2022/12/13 19:44:11;;;;;;;7.10;1.77;;;;;;;;;;10509207;28;20037;-78
2022/12/13 19:49:14;;;;;;;8.20;3.20;;;;;;;;;;10505433;28;20123;-77
2022/12/13 19:54:21;;;;;;;8.70;2.92;;;;;;;;;;10496262;28;20094;-77
2022/12/13 19:59:25;;;;;;;8.63;3.20;;;;;;;;;;10514318;28;20501;-78
2022/12/13 20:04:29;;;;;;;2.30;1.53;;;;;;;;;;10495444;28;20105;-77
2022/12/13 20:09:34;;;;;;;2.53;1.90;;;;;;;;;;10513424;28;20044;-77
2022/12/13 20:14:37;;;;;;;10.67;2.43;;;;;;;;;;10499333;28;20129;-77
2022/12/13 20:19:41;;;;;;;5.90;2.13;;;;;;;;;;10509871;28;20032;-75
2022/12/13 20:24:45;;;;;;;3.53;1.63;;;;;;;;;;10499626;28;20093;-76
2022/12/13 20:29:51;;;;;;;6.27;2.23;;;;;;;;;;10523779;28;20448;-77
2022/12/13 20:34:55;;;;;;;3.77;2.13;;;;;;;;;;10507410;28;20123;-77
2022/12/13 20:40:00;;;;;;;3.73;2.20;;;;;;;;;;10506204;28;20052;-78
2022/12/13 20:45:03;;;;;;;3.33;1.70;;;;;;;;;;10523545;28;20055;-77
2022/12/13 20:50:06;;;;;;;2.47;1.90;;;;;;;;;;10505857;28;20131;-77
2022/12/13 20:55:19;;;;;;;0.93;0.57;;;;;;;;;;10516398;28;20040;-76
2022/12/13 21:00:23;;;;;;;2.30;1.27;;;;;;;;;;10524199;28;20067;-76
2022/12/13 21:05:26;;;;;;;6.20;3.03;;;;;;;;;;10498294;28;20043;-77
2022/12/13 21:10:31;;;;;;;9.60;3.73;;;;;;;;;;10500306;28;20499;-77
2022/12/13 21:15:34;;;;;;;3.70;1.67;;;;;;;;;;10503474;28;20468;-76
2022/12/13 21:20:37;;;;;;;5.27;1.83;;;;;;;;;;10511057;28;20413;-77
2022/12/13 21:25:44;;;;;;;3.53;2.67;;;;;;;;;;10481564;28;20035;-76
2022/12/13 21:30:50;;;;;;;5.27;2.53;;;;;;;;;;10496669;28;20286;-77
2022/12/13 21:35:53;;;;;;;9.23;4.20;;;;;;;;;;10514772;28;20035;-77
2022/12/13 21:40:57;;;;;;;7.77;2.10;;;;;;;;;;10525921;28;20095;-78
2022/12/13 21:46:00;;;;;;;4.97;2.67;;;;;;;;;;10524262;28;20044;-76
2022/12/13 21:51:04;;;;;;;7.53;2.50;;;;;;;;;;10503925;28;20069;-75
2022/12/13 22:02:10;;;;;;;11.27;3.50;;;;;;;;;;10522065;28;20059;-76
2022/12/13 22:06:55;;;;;;;6.03;3.13;;;;;;;;;;10513494;28;20149;-77
2022/12/13 22:11:59;;;;;;;13.17;4.07;;;;;;;;;;10502799;28;20044;-78
2022/12/13 22:17:03;;;;;;;5.77;3.00;;;;;;;;;;10527726;28;20039;-77
2022/12/13 22:22:06;;;;;;;2.93;1.87;;;;;;;;;;10488665;28;20064;-76
2022/12/13 22:27:12;;;;;;;3.22;2.92;;;;;;;;;;10489744;28;20584;-76
2022/12/13 22:32:16;;;;;;;3.73;2.37;;;;;;;;;;10509984;28;20046;-77
2022/12/13 22:37:19;;;;;;;2.73;1.97;;;;;;;;;;10504495;28;20516;-77
2022/12/13 22:42:23;;;;;;;6.30;2.67;;;;;;;;;;10512713;28;20045;-77
2022/12/13 22:47:26;;;;;;;;;;;;;;;;;;10517674;28;20040;-77
2022/12/13 22:52:29;;;;;;;4.33;2.13;;;;;;;;;;10504653;28;19931;-76
2022/12/13 22:57:37;;;;;;;4.13;2.03;;;;;;;;;;10513713;28;20040;-77
2022/12/13 23:02:41;;;;;;;11.33;4.00;;;;;;;;;;10484285;28;20123;-78
2022/12/13 23:07:45;;;;;;;4.40;1.90;;;;;;;;;;10511422;28;20150;-77
2022/12/13 23:13:03;;;;;;;3.23;1.77;;;;;;;;;;10493329;28;20104;-76
2022/12/13 23:18:07;;;;;;;7.10;3.20;;;;;;;;;;10512257;28;20084;-75
2022/12/13 23:23:10;;;;;;;13.23;3.73;;;;;;;;;;10496304;28;20466;-76
2022/12/13 23:28:14;;;;;;;11.27;4.97;;;;;;;;;;10516983;28;20032;-77
2022/12/13 23:33:17;;;;;;;;;;;;;;;;;;10484563;28;20095;-77
2022/12/13 23:38:20;;;;;;;14.23;6.07;;;;;;;;;;10507882;28;19920;-77
2022/12/13 23:43:27;;;;;;;13.63;4.80;;;;;;;;;;10517816;28;20304;-78
2022/12/13 23:48:33;;;;;;;5.50;2.57;;;;;;;;;;10523610;28;20092;-77
2022/12/13 23:53:36;;;;;;;3.70;1.97;;;;;;;;;;10507579;28;20159;-76
2022/12/13 23:58:43;;;;;;;5.73;3.23;;;;;;;;;;10525530;28;20466;-78
